Time;durP1;ratioP1;P1;durP2;ratioP2;P2;SDS_P1;SDS_P2;PMS_P1;PMS_P2;Temp;Humidity;BMP_temperature;BMP_pressure;BME280_temperature;BME280_humidity;BME280_pressure;Samples;Min_cycle;Max_cycle;Signal;HPM_P1;HPM_P2
2021/07/12 00:02:24;;;;;;;13.13;12.13;;;;;;;21.32;69.80;101136.56;5079138;28;20275;-69
2021/07/12 00:04:49;;;;;;;13.43;12.23;;;;;;;20.72;71.95;101142.69;5079449;28;20259;-68
2021/07/12 00:07:14;;;;;;;14.67;13.40;;;;;;;21.13;70.81;101138.88;5076086;28;20173;-69
2021/07/12 00:09:40;;;;;;;13.33;12.10;;;;;;;20.88;70.89;101135.16;5058720;28;20180;-70
2021/07/12 00:12:05;;;;;;;14.37;12.97;;;;;;;21.02;70.35;101143.63;5059616;28;20513;-68
2021/07/12 00:14:31;;;;;;;13.47;12.37;;;;;;;21.06;70.12;101136.47;5069516;28;20437;-69
2021/07/12 00:16:56;;;;;;;13.07;11.87;;;;;;;20.99;69.77;101135.75;5069972;28;20543;-67
2021/07/12 00:19:21;;;;;;;12.70;11.70;;;;;;;21.25;69.65;101144.75;5058046;28;20165;-68
2021/07/12 00:21:46;;;;;;;12.97;11.80;;;;;;;21.01;70.08;101139.22;5072363;28;20251;-67
2021/07/12 00:24:12;;;;;;;13.13;12.03;;;;;;;21.05;69.79;101132.91;5078610;28;20703;-68
2021/07/12 00:26:37;;;;;;;12.37;11.37;;;;;;;21.00;69.40;101140.16;5079435;28;20255;-68
2021/07/12 00:29:03;;;;;;;13.60;12.20;;;;;;;21.06;69.69;101129.38;5075892;28;20260;-66
2021/07/12 00:31:28;;;;;;;13.43;12.30;;;;;;;21.03;69.35;101138.28;5058711;28;20180;-66
2021/07/12 00:33:53;;;;;;;12.30;11.30;;;;;;;20.89;69.56;101136.91;5058855;28;20232;-66
2021/07/12 00:36:18;;;;;;;14.30;11.90;;;;;;;21.07;68.72;101133.75;5058653;28;20589;-66
2021/07/12 00:38:44;;;;;;;13.80;11.97;;;;;;;20.69;69.98;101140.97;5058780;28;20557;-66
2021/07/12 00:41:09;;;;;;;13.63;12.40;;;;;;;20.83;69.81;101144.09;5058690;28;20197;-68
2021/07/12 00:43:35;;;;;;;12.60;11.60;;;;;;;20.68;70.31;101144.50;5058266;28;20170;-68
2021/07/12 00:46:01;;;;;;;13.40;12.10;;;;;;;21.06;68.45;101134.66;5060577;28;20174;-68
2021/07/12 00:48:28;;;;;;;14.17;12.97;;;;;;;20.80;69.32;101143.34;5078788;28;20460;-67
2021/07/12 00:50:54;;;;;;;11.93;10.93;;;;;;;20.79;69.56;101137.16;5078268;28;20230;-67
2021/07/12 00:53:19;;;;;;;12.83;11.80;;;;;;;20.87;69.19;101131.66;5078108;28;20411;-67
2021/07/12 00:55:47;;;;;;;12.77;11.77;;;;;;;20.66;70.10;101141.00;5077948;28;20414;-67
2021/07/12 00:58:15;;;;;;;12.33;11.13;;;;;;;20.89;69.48;101137.81;5078183;28;20183;-67
2021/07/12 01:00:43;;;;;;;12.80;11.67;;;;;;;20.62;69.91;101139.34;5078134;28;20466;-67
2021/07/12 01:03:10;;;;;;;13.47;12.30;;;;;;;20.66;70.14;101136.59;5078302;28;20548;-67
2021/07/12 01:05:37;;;;;;;12.13;11.13;;;;;;;20.03;71.94;101143.44;5078219;28;20461;-67
2021/07/12 01:08:03;;;;;;;11.97;10.93;;;;;;;20.29;70.59;101137.50;5078027;28;20468;-66
2021/07/12 01:10:29;;;;;;;12.67;11.70;;;;;;;20.33;70.70;101144.47;5060965;28;20419;-67
2021/07/12 01:12:58;;;;;;;12.83;11.83;;;;;;;20.33;71.27;101147.13;5077733;28;20181;-67
2021/07/12 01:15:27;;;;;;;12.17;11.17;;;;;;;20.40;70.75;101149.63;5077067;28;20429;-67
2021/07/12 01:18:31;;;;;;;12.80;11.60;;;;;;;20.90;68.83;101143.97;5078383;28;20540;-67
2021/07/12 01:21:17;;;;;;;13.03;11.80;;;;;;;20.94;68.57;101151.78;5068260;28;20498;-67
2021/07/12 01:24:19;;;;;;;12.70;11.50;;;;;;;20.76;69.07;101141.69;5057579;28;20463;-67
2021/07/12 01:27:21;;;;;;;12.37;11.37;;;;;;;20.49;69.30;101138.81;5057960;28;20538;-67
2021/07/12 01:30:13;;;;;;;13.13;11.93;;;;;;;20.46;70.43;101138.88;5058192;28;20438;-67
2021/07/12 01:32:44;;;;;;;12.90;11.73;;;;;;;20.30;70.49;101131.31;5065071;28;20451;-67
2021/07/12 01:35:29;;;;;;;17.93;14.87;;;;;;;21.02;68.27;101125.06;5070227;28;20427;-67
2021/07/12 01:38:15;;;;;;;13.83;12.63;;;;;;;20.42;69.42;101126.59;5076353;28;20415;-68
2021/07/12 01:41:02;;;;;;;13.63;12.43;;;;;;;20.54;69.55;101126.31;5057059;28;20467;-68
2021/07/12 01:43:34;;;;;;;13.00;11.90;;;;;;;19.91;71.90;101126.06;5057539;28;20655;-68
2021/07/12 01:46:08;;;;;;;13.00;11.97;;;;;;;20.08;70.92;101120.38;5057093;28;20726;-69
2021/07/12 01:48:58;;;;;;;12.63;11.63;;;;;;;20.14;70.84;101116.72;5067225;28;20879;-67
2021/07/12 01:51:40;;;;;;;13.23;12.03;;;;;;;20.42;69.73;101122.19;5074555;28;20719;-67
2021/07/12 01:54:32;;;;;;;13.23;12.13;;;;;;;20.65;68.90;101120.75;5056805;28;20424;-67
2021/07/12 01:57:02;;;;;;;12.93;11.83;;;;;;;19.60;72.85;101118.78;5068983;28;20431;-67
2021/07/12 01:59:38;;;;;;;13.17;12.07;;;;;;;19.94;71.53;101109.25;5076735;28;20419;-67
2021/07/12 02:02:05;;;;;;;14.13;13.00;;;;;;;20.66;69.36;101117.16;5057893;28;20908;-68
2021/07/12 02:04:30;;;;;;;12.40;11.40;;;;;;;20.19;70.08;101112.19;5061703;28;20667;-67
2021/07/12 02:06:57;;;;;;;12.33;11.33;;;;;;;20.31;69.75;101101.28;5067840;28;20427;-68
2021/07/12 02:09:23;;;;;;;12.33;11.43;;;;;;;19.83;71.47;101104.19;5063892;28;20213;-70
2021/07/12 02:11:49;;;;;;;12.60;11.60;;;;;;;20.80;68.37;101104.44;5066308;28;20450;-70
2021/07/12 02:14:18;;;;;;;12.90;11.90;;;;;;;20.55;68.80;101100.69;5068795;28;20489;-68
2021/07/12 02:16:44;;;;;;;12.40;11.30;;;;;;;20.73;67.92;101094.06;5057662;28;20712;-67
2021/07/12 02:19:10;;;;;;;13.07;11.80;;;;;;;19.60;71.62;101092.31;5069731;28;20759;-67
2021/07/12 02:21:38;;;;;;;13.07;11.97;;;;;;;19.80;71.54;101091.91;5076668;28;20546;-67
2021/07/12 02:24:05;;;;;;;12.40;11.40;;;;;;;20.45;69.14;101092.13;5076455;28;20463;-67
2021/07/12 02:26:31;;;;;;;13.83;12.50;;;;;;;20.17;69.85;101098.09;5073791;28;20412;-67
2021/07/12 02:28:58;;;;;;;13.47;12.20;;;;;;;19.77;70.47;101086.66;5056647;28;20462;-66
2021/07/12 02:31:24;;;;;;;12.37;11.17;;;;;;;19.83;70.47;101085.69;5058154;28;20427;-67
2021/07/12 02:33:50;;;;;;;12.50;11.40;;;;;;;20.24;69.12;101082.94;5057608;28;20408;-68
2021/07/12 02:36:15;;;;;;;13.03;11.70;;;;;;;20.32;68.94;101083.59;5057707;28;20465;-69
2021/07/12 02:38:41;;;;;;;12.37;11.07;;;;;;;20.63;67.70;101081.03;5057268;28;20220;-68
2021/07/12 02:41:06;;;;;;;14.07;12.73;;;;;;;19.85;70.49;101081.25;5056341;28;20595;-68
2021/07/12 02:43:36;;;;;;;13.90;11.43;;;;;;;19.60;71.31;101080.88;5063409;28;20169;-68
2021/07/12 02:46:03;;;;;;;14.00;11.60;;;;;;;20.06;69.47;101078.97;5080819;28;20302;-68
2021/07/12 02:48:29;;;;;;;13.10;12.10;;;;;;;19.96;70.06;101078.34;5079964;28;20438;-68
2021/07/12 02:50:56;;;;;;;14.03;12.17;;;;;;;20.27;68.46;101075.78;5081067;28;20395;-70
2021/07/12 02:53:29;;;;;;;11.80;10.87;;;;;;;20.67;67.30;101071.22;5079757;28;20180;-67
2021/07/12 02:55:55;;;;;;;12.70;11.70;;;;;;;20.52;67.92;101061.91;5080585;28;20423;-67
2021/07/12 02:58:20;;;;;;;12.47;11.27;;;;;;;20.07;69.16;101067.50;5080679;28;20501;-68
2021/07/12 03:00:46;;;;;;;13.53;12.43;;;;;;;20.36;67.93;101061.44;5080550;28;20212;-69
2021/07/12 03:03:11;;;;;;;12.57;11.47;;;;;;;19.85;69.67;101066.22;5080655;28;20226;-68
2021/07/12 03:05:36;;;;;;;11.20;10.27;;;;;;;19.98;69.80;101058.84;5080390;28;20204;-68
2021/07/12 03:08:08;;;;;;;11.97;10.90;;;;;;;19.99;69.89;101060.59;5080281;28;20173;-68
2021/07/12 03:10:52;;;;;;;13.50;12.40;;;;;;;20.30;68.67;101059.81;5080135;28;20181;-69
2021/07/12 03:13:21;;;;;;;12.40;11.30;;;;;;;19.62;70.74;101056.16;5079532;28;20415;-69
2021/07/12 03:15:47;;;;;;;12.53;11.53;;;;;;;19.61;71.15;101053.53;5079624;28;20814;-69
2021/07/12 03:18:21;;;;;;;13.03;11.83;;;;;;;20.06;70.15;101057.81;5072582;28;20438;-69
2021/07/12 03:20:47;;;;;;;11.80;10.90;;;;;;;19.67;71.19;101069.25;5060016;28;20466;-70
2021/07/12 03:23:14;;;;;;;12.87;11.57;;;;;;;19.25;72.56;101074.59;5059800;28;20431;-71
2021/07/12 03:25:45;;;;;;;12.50;11.50;;;;;;;18.98;73.99;101061.03;5059264;28;20432;-68
2021/07/12 03:28:11;;;;;;;13.00;12.00;;;;;;;20.00;70.09;101057.03;5060680;28;20408;-69
2021/07/12 03:30:37;;;;;;;13.50;12.33;;;;;;;19.46;71.66;101062.69;5059424;28;20808;-68
2021/07/12 03:33:03;;;;;;;13.13;12.13;;;;;;;19.48;72.06;101055.59;5059168;28;20589;-68
2021/07/12 03:35:35;;;;;;;12.43;11.20;;;;;;;19.32;72.43;101055.94;5060243;28;20416;-68
2021/07/12 03:38:01;;;;;;;11.60;10.67;;;;;;;19.35;72.34;101049.72;5059925;28;20927;-69
2021/07/12 03:40:26;;;;;;;12.43;11.27;;;;;;;19.89;70.57;101058.19;5059013;28;20703;-69
2021/07/12 03:42:52;;;;;;;12.10;11.07;;;;;;;19.30;72.42;101057.72;5060053;28;20495;-69
2021/07/12 03:45:17;;;;;;;12.60;11.50;;;;;;;19.78;70.92;101048.72;5059234;28;20448;-68
2021/07/12 03:47:43;;;;;;;12.63;11.40;;;;;;;19.87;70.42;101038.88;5059868;28;20166;-69
2021/07/12 03:50:14;;;;;;;13.10;11.90;;;;;;;19.84;70.41;101043.31;5060064;28;20166;-69
2021/07/12 03:52:47;;;;;;;12.83;11.60;;;;;;;20.43;68.59;101049.78;5059255;28;20416;-68
2021/07/12 03:55:14;;;;;;;11.10;10.20;;;;;;;19.79;70.26;101049.59;5059442;28;20424;-69
2021/07/12 03:57:40;;;;;;;11.30;10.23;;;;;;;21.21;65.12;101035.25;5058760;28;20697;-68
2021/07/12 04:00:08;;;;;;;10.90;9.90;;;;;;;22.33;60.60;101035.25;5059279;28;20511;-68
2021/07/12 04:02:33;;;;;;;10.50;9.60;;;;;;;22.80;59.27;101034.47;5059178;28;20404;-68
2021/07/12 04:04:58;;;;;;;10.10;9.27;;;;;;;23.47;57.32;101035.53;5059443;28;20423;-69
2021/07/12 04:07:24;;;;;;;10.40;9.40;;;;;;;22.04;61.42;101045.06;5059343;28;20177;-69
2021/07/12 04:09:49;;;;;;;9.93;9.13;;;;;;;21.10;64.37;101046.19;5059871;28;20445;-68
2021/07/12 04:12:22;;;;;;;10.17;9.27;;;;;;;22.02;61.73;101036.28;5059090;28;20197;-68
2021/07/12 04:14:48;;;;;;;9.90;9.10;;;;;;;22.30;60.86;101030.03;5059117;28;20299;-68
2021/07/12 04:17:13;;;;;;;9.20;8.40;;;;;;;22.11;61.85;101041.28;5059620;28;20446;-68
2021/07/12 04:19:38;;;;;;;10.27;9.47;;;;;;;21.57;62.64;101034.19;5059078;28;20208;-69
2021/07/12 04:22:04;;;;;;;10.77;9.30;;;;;;;21.92;62.10;101030.44;5059073;28;20272;-68
2021/07/12 04:24:29;;;;;;;11.17;8.77;;;;;;;22.45;60.92;101031.34;5058847;28;20266;-68
2021/07/12 04:26:54;;;;;;;8.97;8.30;;;;;;;23.79;56.87;101031.56;5058774;28;20189;-69
2021/07/12 04:29:20;;;;;;;9.43;8.73;;;;;;;22.46;60.16;101028.63;5059056;28;20528;-68
2021/07/12 04:31:45;;;;;;;8.93;8.30;;;;;;;22.07;61.73;101036.13;5058691;28;20185;-68
2021/07/12 04:34:10;;;;;;;9.50;8.80;;;;;;;22.61;59.78;101036.94;5058750;28;20177;-68
2021/07/12 04:36:35;;;;;;;9.27;8.57;;;;;;;23.01;58.16;101023.03;5059260;28;20169;-69
2021/07/12 04:39:01;;;;;;;9.50;8.60;;;;;;;24.45;54.64;101019.06;5058716;28;20184;-68
2021/07/12 04:41:27;;;;;;;8.63;8.03;;;;;;;24.40;54.33;101013.94;5058507;28;20243;-68
2021/07/12 04:43:52;;;;;;;9.10;8.23;;;;;;;24.45;53.30;101014.63;5058746;28;20242;-68
2021/07/12 04:46:17;;;;;;;9.03;8.10;;;;;;;22.68;58.57;101034.00;5058598;28;20173;-68
2021/07/12 04:48:43;;;;;;;8.57;7.97;;;;;;;23.53;56.45;101025.50;5058752;28;20523;-69
2021/07/12 04:51:08;;;;;;;9.10;8.30;;;;;;;23.47;56.53;101028.41;5058957;28;20209;-68
2021/07/12 04:53:33;;;;;;;9.13;8.50;;;;;;;24.64;53.24;101017.34;5058427;28;20174;-68
2021/07/12 04:55:59;;;;;;;8.70;8.07;;;;;;;25.00;51.65;101019.25;5058560;28;20235;-69
2021/07/12 04:58:24;;;;;;;8.77;7.87;;;;;;;25.28;51.29;101022.44;5058771;28;20512;-69
2021/07/12 05:00:49;;;;;;;9.20;8.40;;;;;;;24.08;54.28;101010.00;5058206;28;20208;-69
2021/07/12 05:03:29;;;;;;;8.97;8.07;;;;;;;24.20;54.41;101018.31;5057525;28;20174;-68
2021/07/12 05:05:54;;;;;;;9.17;8.30;;;;;;;24.94;51.93;101016.00;5057593;28;20569;-68
2021/07/12 05:08:20;;;;;;;9.13;8.43;;;;;;;26.44;48.36;101008.69;5058185;28;20408;-68
2021/07/12 05:10:45;;;;;;;8.80;7.93;;;;;;;25.77;49.39;101014.72;5058779;28;20177;-68
2021/07/12 05:13:10;;;;;;;10.43;9.63;;;;;;;24.73;51.68;101010.72;5057932;28;20213;-68
2021/07/12 05:15:37;;;;;;;9.27;8.57;;;;;;;23.94;54.40;101011.47;5058170;28;20540;-68
2021/07/12 05:18:02;;;;;;;10.03;9.03;;;;;;;26.39;48.87;101012.47;5058430;28;20196;-68
2021/07/12 05:20:28;;;;;;;9.40;8.70;;;;;;;27.05;46.94;101009.91;5057362;28;20472;-68
2021/07/12 05:22:53;;;;;;;9.63;8.70;;;;;;;28.07;44.23;101004.13;5058132;28;20192;-69
2021/07/12 05:25:18;;;;;;;8.53;7.93;;;;;;;26.89;46.31;101016.09;5058150;28;20221;-68
2021/07/12 05:27:43;;;;;;;8.60;7.87;;;;;;;27.37;45.73;101001.91;5058038;28;20216;-68
2021/07/12 05:30:09;;;;;;;8.10;7.50;;;;;;;25.99;48.92;101010.97;5057839;28;20248;-69
2021/07/12 05:32:35;;;;;;;8.47;7.77;;;;;;;26.26;47.39;101002.53;5058026;28;20181;-68
2021/07/12 05:35:00;;;;;;;8.90;8.10;;;;;;;24.90;51.99;101001.97;5058007;28;20802;-69
2021/07/12 05:37:25;;;;;;;8.37;7.67;;;;;;;27.42;45.85;100997.16;5057983;28;20174;-69
2021/07/12 05:39:51;;;;;;;9.80;7.90;;;;;;;27.37;45.35;100993.88;5058289;28;20223;-69
2021/07/12 05:42:16;;;;;;;8.70;8.07;;;;;;;28.66;42.75;100997.91;5057402;28;20500;-69
2021/07/12 05:44:41;;;;;;;8.83;7.97;;;;;;;28.65;42.69;100993.50;5057670;28;20284;-69
2021/07/12 05:47:06;;;;;;;8.50;7.80;;;;;;;29.02;41.84;100996.53;5058368;28;20173;-68
2021/07/12 05:49:32;;;;;;;7.63;7.10;;;;;;;28.88;41.51;101000.97;5057839;28;20180;-69
2021/07/12 05:51:57;;;;;;;8.57;7.97;;;;;;;29.07;41.80;100989.06;5057943;28;20585;-68
2021/07/12 05:54:22;;;;;;;8.13;7.40;;;;;;;27.39;45.12;101005.38;5058149;28;20538;-67
2021/07/12 05:56:48;;;;;;;8.33;7.73;;;;;;;28.39;42.77;101012.06;5057507;28;20442;-69
2021/07/12 05:59:13;;;;;;;7.83;7.20;;;;;;;27.87;43.54;101011.53;5057785;28;20170;-68
2021/07/12 06:01:38;;;;;;;10.33;8.70;;;;;;;29.31;40.68;101009.91;5057402;28;20547;-69
2021/07/12 06:04:04;;;;;;;9.13;8.43;;;;;;;28.98;41.14;101000.38;5057469;28;20169;-68
2021/07/12 06:06:29;;;;;;;9.07;8.30;;;;;;;26.33;46.34;101012.81;5057662;28;20181;-69
2021/07/12 06:08:54;;;;;;;9.47;8.53;;;;;;;29.51;40.87;100996.06;5057882;28;20444;-69
2021/07/12 06:11:20;;;;;;;9.70;7.83;;;;;;;29.51;40.28;100995.19;5057400;28;20250;-69
2021/07/12 06:13:45;;;;;;;7.97;7.30;;;;;;;30.70;37.95;100993.34;5057571;28;20173;-68
2021/07/12 06:16:10;;;;;;;8.43;7.70;;;;;;;28.41;42.28;100996.72;5059634;28;20554;-67
2021/07/12 06:18:36;;;;;;;9.30;8.30;;;;;;;28.37;42.48;100998.75;5061329;28;20181;-68
2021/07/12 06:21:01;;;;;;;8.60;7.90;;;;;;;28.37;42.27;101008.59;5061348;28;20624;-68
2021/07/12 06:23:26;;;;;;;8.40;7.80;;;;;;;30.39;38.88;101000.00;5061314;28;20656;-68
2021/07/12 06:25:52;;;;;;;9.10;8.30;;;;;;;29.07;41.09;101002.47;5061205;28;20174;-68
2021/07/12 06:28:17;;;;;;;8.77;7.70;;;;;;;29.37;40.93;101002.31;5061052;28;20508;-69
2021/07/12 06:30:42;;;;;;;8.77;7.90;;;;;;;30.85;37.93;100993.19;5061161;28;20205;-69
2021/07/12 06:33:08;;;;;;;8.87;7.93;;;;;;;30.41;38.13;100995.38;5061122;28;20173;-68
2021/07/12 06:35:34;;;;;;;9.10;8.20;;;;;;;29.97;39.00;100992.13;5061426;28;20170;-68
2021/07/12 06:37:59;;;;;;;8.70;7.90;;;;;;;28.96;41.29;101000.47;5061106;28;20613;-68
2021/07/12 06:40:24;;;;;;;9.00;8.17;;;;;;;30.64;38.46;100992.94;5061034;28;20209;-69
2021/07/12 06:42:50;;;;;;;15.20;8.50;;;;;;;30.68;38.66;100997.13;5060468;28;20169;-70
2021/07/12 06:45:15;;;;;;;10.93;8.33;;;;;;;31.18;36.80;100981.84;5060568;28;20197;-69
2021/07/12 06:47:40;;;;;;;8.70;7.90;;;;;;;30.68;38.64;100987.22;5060966;28;20178;-69
2021/07/12 06:50:06;;;;;;;8.50;7.90;;;;;;;30.56;38.16;100983.56;5061194;28;20173;-68
2021/07/12 06:52:32;;;;;;;8.03;7.43;;;;;;;30.70;37.87;100982.59;5060549;28;20457;-68
2021/07/12 06:54:57;;;;;;;9.33;8.53;;;;;;;29.44;39.91;100975.06;5060538;28;20182;-66
2021/07/12 06:57:23;;;;;;;10.93;7.03;;;;;;;30.32;38.30;100979.88;5065993;28;20255;-67
2021/07/12 06:59:50;;;;;;;9.47;8.70;;;;;;;28.83;41.14;100988.78;5078022;28;20264;-67
2021/07/12 07:02:15;;;;;;;10.73;8.40;;;;;;;29.18;40.04;100977.63;5040374;28;20181;-67
2021/07/12 07:04:41;;;;;;;9.00;8.20;;;;;;;28.43;40.85;100981.41;5050677;28;20408;-67
2021/07/12 07:07:07;;;;;;;9.63;8.80;;;;;;;27.63;43.21;100980.78;5080516;28;20553;-68
2021/07/12 07:09:32;;;;;;;9.10;8.40;;;;;;;30.58;37.92;100975.41;5080423;28;20238;-68
2021/07/12 07:11:58;;;;;;;8.73;8.10;;;;;;;30.51;38.61;100966.91;5080603;28;20161;-68
2021/07/12 07:14:23;;;;;;;9.27;8.50;;;;;;;32.33;34.85;100948.97;5065366;28;20181;-68
2021/07/12 07:16:48;;;;;;;8.87;7.97;;;;;;;32.47;34.44;100956.78;5060137;28;20223;-68
2021/07/12 07:19:14;;;;;;;8.87;8.00;;;;;;;28.23;42.51;100963.84;5060564;28;20162;-68
2021/07/12 07:21:39;;;;;;;9.03;8.17;;;;;;;29.57;39.66;100947.28;5059928;28;20645;-67
2021/07/12 07:24:04;;;;;;;8.80;8.10;;;;;;;29.07;40.67;100952.31;5059598;28;20225;-68
2021/07/12 07:26:30;;;;;;;8.20;7.33;;;;;;;30.86;37.12;100949.16;5060164;28;20229;-68
2021/07/12 07:28:56;;;;;;;9.00;8.10;;;;;;;31.15;36.47;100946.19;5059256;28;20466;-66
2021/07/12 07:31:22;;;;;;;8.63;7.83;;;;;;;29.51;40.06;100949.50;5073637;28;20173;-67
2021/07/12 07:33:47;;;;;;;9.00;8.07;;;;;;;31.62;36.57;100941.78;5080281;28;20407;-67
2021/07/12 07:36:13;;;;;;;8.13;7.43;;;;;;;29.96;39.82;100944.72;5079777;28;20179;-68
2021/07/12 07:38:38;;;;;;;8.37;7.70;;;;;;;31.64;36.04;100933.59;5080130;28;20596;-68
2021/07/12 07:41:03;;;;;;;8.40;7.60;;;;;;;31.63;36.47;100932.72;5080019;28;20188;-68
2021/07/12 07:43:29;;;;;;;7.90;7.30;;;;;;;32.24;34.70;100927.13;5079552;28;20192;-68
2021/07/12 07:45:54;;;;;;;7.50;7.00;;;;;;;29.77;40.07;100939.72;5079537;28;20565;-69
2021/07/12 07:48:19;;;;;;;8.00;7.40;;;;;;;29.96;39.80;100941.13;5079833;28;20192;-68
2021/07/12 07:50:45;;;;;;;7.83;7.10;;;;;;;31.50;36.85;100930.09;5079498;28;20180;-68
2021/07/12 07:53:10;;;;;;;8.87;8.27;;;;;;;30.39;38.57;100927.38;5079073;28;20173;-69
2021/07/12 07:55:35;;;;;;;9.10;8.17;;;;;;;29.14;41.54;100928.63;5079530;28;20176;-69
2021/07/12 07:58:01;;;;;;;7.87;7.27;;;;;;;29.33;41.69;100922.06;5062635;28;20170;-67
2021/07/12 08:00:27;;;;;;;7.97;7.33;;;;;;;30.35;39.74;100931.25;5045593;28;20210;-66
2021/07/12 08:02:53;;;;;;;8.70;8.07;;;;;;;29.74;40.19;100934.53;5054837;28;20227;-66
2021/07/12 08:05:19;;;;;;;7.70;7.20;;;;;;;32.01;35.65;100928.03;5071254;28;20256;-66
2021/07/12 08:07:45;;;;;;;8.40;7.80;;;;;;;32.58;35.17;100927.13;5059261;28;20185;-66
2021/07/12 08:10:13;;;;;;;8.37;7.57;;;;;;;32.66;34.74;100925.63;5059570;28;20389;-66
2021/07/12 08:12:40;;;;;;;8.30;7.47;;;;;;;30.18;39.25;100936.00;5058634;28;20408;-67
2021/07/12 08:15:10;;;;;;;9.67;7.67;;;;;;;33.26;33.21;100934.28;5048435;28;20673;-67
2021/07/12 08:17:37;;;;;;;7.80;7.17;;;;;;;34.31;31.87;100924.50;5039698;28;20433;-67
2021/07/12 08:20:04;;;;;;;8.33;7.67;;;;;;;34.46;31.61;100935.81;5038976;28;20427;-67
2021/07/12 08:22:29;;;;;;;8.47;7.77;;;;;;;33.99;31.82;100929.00;5038023;28;20421;-68
2021/07/12 08:24:54;;;;;;;8.27;7.70;;;;;;;29.76;40.09;100940.66;5038613;28;20471;-68
2021/07/12 08:27:19;;;;;;;7.30;6.70;;;;;;;31.77;36.34;100928.09;5038916;28;20162;-69
2021/07/12 08:29:45;;;;;;;8.00;7.40;;;;;;;33.38;33.82;100925.13;5038890;28;20190;-69
2021/07/12 08:32:10;;;;;;;8.17;7.60;;;;;;;32.67;35.44;100924.66;5049161;28;20208;-69
2021/07/12 08:34:41;;;;;;;7.83;7.03;;;;;;;33.24;33.48;100928.97;5058579;28;20258;-67
2021/07/12 08:37:07;;;;;;;8.10;7.50;;;;;;;33.10;33.53;100923.84;5058799;28;20169;-69
2021/07/12 08:39:33;;;;;;;7.80;7.00;;;;;;;34.20;32.51;100917.28;5057607;28;20416;-68
2021/07/12 08:41:59;;;;;;;7.93;7.17;;;;;;;31.75;36.69;100922.84;5058342;28;20467;-69
2021/07/12 08:44:25;;;;;;;7.70;7.00;;;;;;;33.40;33.55;100914.19;5058798;28;20181;-68
2021/07/12 08:46:50;;;;;;;8.00;7.30;;;;;;;33.29;33.68;100931.31;5058364;28;20430;-68
2021/07/12 08:49:15;;;;;;;8.43;7.83;;;;;;;32.50;35.49;100924.19;5058253;28;20161;-68
2021/07/12 08:51:41;;;;;;;7.77;7.27;;;;;;;30.88;37.84;100923.00;5058442;28;20169;-69
2021/07/12 08:54:07;;;;;;;8.00;7.33;;;;;;;33.89;33.03;100928.06;5058037;28;20173;-67
2021/07/12 08:56:32;;;;;;;9.90;7.83;;;;;;;31.61;37.13;100920.34;5058169;28;20170;-67
2021/07/12 08:58:57;;;;;;;8.83;8.03;;;;;;;30.77;38.13;100926.50;5058766;28;20185;-67
2021/07/12 09:01:23;;;;;;;8.73;7.90;;;;;;;31.43;37.75;100912.66;5057952;28;20197;-67
2021/07/12 09:03:51;;;;;;;8.70;7.87;;;;;;;32.43;35.46;100919.41;5057710;28;20215;-67
2021/07/12 09:06:18;;;;;;;8.70;8.03;;;;;;;30.82;38.67;100920.75;5048638;28;20164;-68
2021/07/12 09:08:51;;;;;;;8.70;7.80;;;;;;;33.58;33.09;100918.03;5057876;28;20416;-68
2021/07/12 09:11:35;;;;;;;9.33;7.13;;;;;;;34.13;32.37;100911.56;5057867;28;20436;-68
2021/07/12 09:14:11;;;;;;;7.60;7.00;;;;;;;33.32;34.50;100908.56;5057772;28;20436;-67
2021/07/12 09:16:38;;;;;;;7.87;7.10;;;;;;;33.86;32.15;100906.72;5057883;28;20515;-68
2021/07/12 09:19:03;;;;;;;7.27;6.67;;;;;;;31.61;35.82;100909.56;5057901;28;20674;-67
2021/07/12 09:21:36;;;;;;;8.27;7.47;;;;;;;32.43;35.45;100906.75;5057844;28;20459;-69
2021/07/12 09:24:34;;;;;;;8.00;7.30;;;;;;;31.33;36.80;100920.56;5057787;28;20222;-68
2021/07/12 09:27:02;;;;;;;7.87;7.00;;;;;;;32.41;34.47;100903.34;5046179;28;20443;-68
2021/07/12 09:29:36;;;;;;;7.70;7.10;;;;;;;30.92;37.49;100902.97;5057166;28;20427;-68
2021/07/12 09:32:05;;;;;;;7.67;7.07;;;;;;;29.68;39.39;100913.47;5057486;28;20523;-69
2021/07/12 09:34:30;;;;;;;7.93;7.33;;;;;;;29.86;39.44;100909.53;5057635;28;20498;-68
2021/07/12 09:36:56;;;;;;;8.83;7.93;;;;;;;32.34;35.17;100902.97;5057601;28;20668;-67
2021/07/12 09:39:29;;;;;;;7.33;6.73;;;;;;;32.14;34.75;100895.59;5057838;28;20169;-69
2021/07/12 09:42:06;;;;;;;7.43;6.73;;;;;;;32.26;34.03;100899.16;5058012;28;20492;-67
2021/07/12 09:44:32;;;;;;;7.30;6.80;;;;;;;32.88;33.29;100893.22;5057714;28;20438;-69
2021/07/12 09:47:04;;;;;;;6.97;6.30;;;;;;;33.67;32.16;100896.59;5057403;28;20438;-68
2021/07/12 09:49:29;;;;;;;8.10;7.30;;;;;;;31.20;37.44;100891.03;5057628;28;20507;-68
2021/07/12 09:51:59;;;;;;;7.50;6.80;;;;;;;33.46;32.16;100888.47;5060673;28;20506;-69
2021/07/12 09:54:31;;;;;;;6.80;6.30;;;;;;;33.79;31.78;100895.56;5061613;28;20215;-69
2021/07/12 09:57:01;;;;;;;6.90;6.40;;;;;;;32.21;34.54;100894.13;5061714;28;20670;-67
2021/07/12 09:59:27;;;;;;;7.40;6.40;;;;;;;31.54;35.66;100890.28;5061566;28;20428;-68
2021/07/12 10:01:54;;;;;;;7.70;6.77;;;;;;;33.37;32.83;100887.44;5061421;28;20532;-68
2021/07/12 10:04:20;;;;;;;7.23;6.70;;;;;;;31.45;35.92;100891.84;5061763;28;20560;-69
2021/07/12 10:06:47;;;;;;;10.20;7.10;;;;;;;31.60;36.80;100891.69;5061229;28;20848;-67
2021/07/12 10:09:13;;;;;;;7.70;7.00;;;;;;;32.48;34.23;100879.41;5061401;28;20415;-68
2021/07/12 10:11:39;;;;;;;7.37;6.87;;;;;;;33.06;33.41;100865.69;5061644;28;20427;-67
2021/07/12 10:14:05;;;;;;;7.43;6.93;;;;;;;31.27;37.34;100872.56;5060521;28;20231;-67
2021/07/12 10:16:31;;;;;;;7.93;7.33;;;;;;;29.98;39.62;100866.63;5061288;28;20420;-68
2021/07/12 10:18:56;;;;;;;8.37;7.67;;;;;;;30.86;38.20;100874.66;5061749;28;20193;-67
2021/07/12 10:21:22;;;;;;;8.70;8.00;;;;;;;30.93;38.39;100863.44;5061007;28;20246;-68
2021/07/12 10:23:47;;;;;;;9.97;8.93;;;;;;;29.98;40.66;100869.31;5060045;28;20220;-70
2021/07/12 10:26:12;;;;;;;9.03;8.23;;;;;;;29.97;39.59;100867.59;5061717;28;20231;-68
2021/07/12 10:28:43;;;;;;;8.00;7.50;;;;;;;31.08;37.78;100856.91;5061018;28;20189;-68
2021/07/12 10:31:21;;;;;;;7.97;7.37;;;;;;;30.29;38.82;100861.78;5060833;28;20168;-69
2021/07/12 10:33:47;;;;;;;8.13;7.43;;;;;;;31.71;36.80;100844.03;5060774;28;20441;-69
2021/07/12 10:36:36;;;;;;;8.23;7.50;;;;;;;32.20;35.97;100863.59;5061113;28;20416;-69
2021/07/12 10:39:02;;;;;;;7.60;7.10;;;;;;;31.10;36.99;100846.91;5060387;28;20539;-69
2021/07/12 10:41:28;;;;;;;7.77;7.17;;;;;;;31.46;37.03;100837.00;5060805;28;20470;-69
2021/07/12 10:43:57;;;;;;;7.97;7.47;;;;;;;30.52;38.61;100852.91;5061091;28;20539;-69
2021/07/12 10:46:26;;;;;;;7.53;6.93;;;;;;;31.44;36.56;100848.88;5060642;28;20470;-68
2021/07/12 10:48:52;;;;;;;7.73;7.00;;;;;;;31.69;35.58;100826.28;5060633;28;20431;-69
2021/07/12 10:51:23;;;;;;;7.20;6.60;;;;;;;32.41;34.90;100833.19;5060816;28;20420;-69
2021/07/12 10:54:04;;;;;;;7.33;6.80;;;;;;;33.01;34.73;100833.63;5060469;28;20848;-69
2021/07/12 10:57:00;;;;;;;7.70;7.20;;;;;;;30.94;37.67;100830.16;5060685;28;20518;-69
2021/07/12 10:59:31;;;;;;;7.40;7.00;;;;;;;33.01;33.66;100824.69;5060531;28;20774;-68
2021/07/12 11:01:58;;;;;;;7.77;7.07;;;;;;;32.46;34.72;100828.25;5059719;28;20460;-69
2021/07/12 11:04:34;;;;;;;7.70;7.20;;;;;;;32.04;35.51;100823.50;5064841;28;20411;-68
2021/07/12 11:07:00;;;;;;;8.80;7.90;;;;;;;31.12;37.54;100817.16;5064089;28;20419;-69
2021/07/12 11:09:45;;;;;;;9.00;8.27;;;;;;;29.91;39.88;100823.19;5060573;28;20455;-69
2021/07/12 11:12:38;;;;;;;8.57;7.87;;;;;;;28.25;43.31;100821.69;5060141;28;20428;-67
2021/07/12 11:15:39;;;;;;;9.13;8.27;;;;;;;30.34;38.58;100817.44;5060161;28;20461;-68
2021/07/12 11:18:08;;;;;;;8.93;8.33;;;;;;;30.06;39.83;100805.97;5038577;28;20428;-68
2021/07/12 11:20:43;;;;;;;8.97;8.30;;;;;;;30.35;39.14;100818.28;5055996;28;20451;-67
2021/07/12 11:23:09;;;;;;;8.67;8.07;;;;;;;29.34;39.45;100803.81;5059733;28;20407;-68
2021/07/12 11:25:43;;;;;;;8.40;7.90;;;;;;;28.60;41.36;100811.34;5059406;28;20497;-68